Aérodrome :
LOGIN :

S'inscrire | Disclaimer

   EN    FR    IT 

 










Légende :    VFR   VFR Marginal   IFR   IFR Intensif   IFR Très Intensif
Visi : 
Plafond : 
>= 8 km
>= 3000ft
5 à 8 km
1000 à 3000 ft
1500m à 5 km
500 à 1000 ft
800 à 1500m
200 à 500 ft
< 800m
< 200 ft
Symboles :   Orages  Brouillard  Fortes neiges  Fortes précipitations  Vent > 20 kt
SIGMETs :   Divers  Orages  Givrage  Turbulence  Onde Orograph.  Cendres Volcan.







- Altitude de l'aérodrome : 978 ft
- Code IATA : LNZ


LOWL - Linz

DERNIER METAR :
  • 250450Z 22002KT CAVOK 16/15 Q1020 NOSIG

METARs EXPIRÉS :
  • 250420Z VRB01KT 9999 MIFG FEW110 SCT300 16/15 Q1019 NOSIG
  • 250350Z VRB01KT CAVOK 16/15 Q1019 NOSIG
  • 250320Z VRB01KT CAVOK 17/15 Q1019 NOSIG
  • 250250Z AUTO 11002KT 9999 NSC 16/15 Q1019
  • 250220Z AUTO VRB01KT 9999 NSC 17/15 Q1019

TAF TAF LOWL
Valide du 25 à 00h jusqu'au 26 à 00h UTC


242315Z 2500/2524 VRB02KT CAVOK TX28/2514Z TN17/2504Z
TEMPO 2510/2518 09005KT 9999 FEW040 SCT300
PROB30
TEMPO 2513/2518 9999 SHRA FEW050CB BKN300
Pas de NOTAMs connus pour ce terrain.



MET'MAP, la Météo Aéronautique d'un coup d'oeil ! - Copyright ORBIFLY Décembre 2007 - Disclaimer

ORBIFLY MET'MAP TEAM :

Programmation & Développement : Alexandra Zaïnal
Conception & Développement : Baudouin d'Aumeries
Co-Programmation & Développement : Marc-Olivier Méhu
Soutien technique & logistique : Manuel Goepfert

Contact : metmap@orbifly.com




SOURCES & CREDITS :

   NOAA